Amelia, Ohio
Current Conditions -  °F | °C
As of 4:53 PM on Sunday 23 Nov 2014 (Local Time) from KLUK Reporting Station
Light Rain Light Rain  
Wind Chill: 13°   Ceiling: 5000
Heat Index: 13°   Visibility: 6mi
Dew Point: 10°   Wind: 7mph
Humidity: 83%   Direction: NA
Pressure: 29.58"   Gusts: NA
Location:  39.03°N, 84.22°W
Report Text: KLUK 232153Z VRB06KT 6SM -RA BKN050 BKN065 OVC100 13/10 A2958 RMK AO2 SLP018 P0003 T01280100
Loading
Personal Weather Stations






























Interactive Weather Map New forecast layout! Learn more

10-Day Weather Forecast

Advertisements
Track Severe Weather on mobile